Aeroporto :
LOGIN :

Iscrizione | Disclaimer

   EN    FR    IT 

 










Sommario :    VFR   VFR Marginale   IFR   IFR Intensivo   IFR Molto Intensivo
Visibilità : 
Base nubi : 
>= 8 km
>= 3000ft
5 / 8 km
1000 / 3000 ft
1500m / 5 km
500 / 1000 ft
800 / 1500m
200 / 500 ft
< 800m
< 200 ft
Simboli :   Temporali  Nebbia  Neve Forte  Precipitazioni Forti  Vento > 20 kt
SIGMETs :   Varie  Temporali  Ghiacco  Turbolenza  Onda orograficha  Ceneri Vulcaniche






- Altitudine del aeroporto : 49 ft
- Codice IATA : AOI


LIPY - Ancona Falconara

ULTIMO METAR :
  • 190720Z AUTO 05007KT 030V090 9999 NCD 28/18 Q1015

METARs OBSOLETI :
  • 190650Z AUTO VRB01KT 9999 NCD 28/18 Q1015
  • 190620Z AUTO 23004KT 9999 NCD 26/18 Q1015
  • 190550Z AUTO 24004KT 9999 NCD 25/17 Q1015
  • 190520Z AUTO 22003KT 190V250 9999 NCD 24/17 Q1015
  • 190450Z AUTO VRB02KT 9999 NCD 22/16 Q1015
  • 190420Z AUTO VRB02KT 9999 NCD 21/16 Q1015
  • 190350Z AUTO 21003KT 110V250 9999 NCD 21/15 Q1015
  • 190320Z AUTO 17003KT 9999 NCD 22/15 Q1015
  • 190250Z AUTO 18003KT 9999 NCD 22/15 Q1015

TAF TAF LIPY
Valido dal 19 a 06 ore il 20 a 06 ore UTC


190500Z 1906/2006 VRB04KT CAVOK
BECMG 1909/1911 10010KT
BECMG 1917/1919 VRB04KT



MetMap, La meteo Aeronautica in un colpo d'occhio ! - Copyright ORBIFLY Dicembre 2007 - Disclaimer

ORBIFLY MET'MAP TEAM :

Programmazione e sviluppo : Alexandra Zaïnal
Concezione : Baudouin d'Aumeries
Supporto tecnico e logistico : Manuel Goepfert
Aiuto : Marc-Olivier Méhu
Aiuto per la traduzione : Arnaldo La Scala




FONTI E CREDITI :

   NOAA